createdAt,value
2023-03-30T00:02:23.292Z,101450.06
2023-03-30T00:07:25.615Z,101440.03
2023-03-30T00:12:28.442Z,101434.97
2023-03-30T00:17:31.229Z,101433.94
2023-03-30T00:22:33.632Z,101415.78
2023-03-30T00:27:37.524Z,101428.03
2023-03-30T00:32:40.212Z,101431.94
2023-03-30T00:37:46.228Z,101421.31
2023-03-30T00:42:48.916Z,101424.09
2023-03-30T00:48:02.470Z,101407.06
2023-03-30T00:53:12.907Z,101408.09
2023-03-30T00:58:17.203Z,101412.59
2023-03-30T01:03:32.792Z,101398.25
2023-03-30T01:08:36.835Z,101399.03
2023-03-30T01:13:47.811Z,101390.00
2023-03-30T01:19:23.684Z,101393.22
2023-03-30T01:24:49.420Z,101396.13
2023-03-30T01:30:19.949Z,101401.66
2023-03-30T01:35:28.212Z,101400.66
2023-03-30T01:41:10.176Z,101398.97
2023-03-30T01:46:20.165Z,101395.44
2023-03-30T01:51:27.880Z,101395.72
2023-03-30T01:56:36.752Z,101404.53
2023-03-30T02:01:42.150Z,101387.88
2023-03-30T02:06:51.739Z,101391.97
2023-03-30T02:11:55.182Z,101392.75
2023-03-30T02:17:11.708Z,101391.78
2023-03-30T02:22:16.694Z,101381.09
2023-03-30T02:27:19.379Z,101392.66
2023-03-30T02:32:26.232Z,101381.56
2023-03-30T02:37:59.157Z,101405.72
2023-03-30T02:43:19.570Z,101411.06
2023-03-30T02:48:27.759Z,101409.47
2023-03-30T02:53:34.768Z,101405.28
2023-03-30T02:58:39.728Z,101401.66
2023-03-30T03:03:47.990Z,101402.19
2023-03-30T03:08:50.786Z,101369.63
2023-03-30T03:13:52.846Z,101402.34
2023-03-30T03:18:55.011Z,101385.91
2023-03-30T03:23:57.073Z,101405.03
2023-03-30T03:28:59.198Z,101400.25
2023-03-30T03:34:01.542Z,101385.53
2023-03-30T03:39:04.398Z,101395.22
2023-03-30T03:44:06.599Z,101392.44
2023-03-30T03:49:09.040Z,101395.41
2023-03-30T03:54:11.324Z,101386.16
2023-03-30T03:59:13.477Z,101423.84
2023-03-30T04:04:15.626Z,101405.72
2023-03-30T04:09:19.527Z,101417.09
2023-03-30T04:14:21.650Z,101410.06
2023-03-30T04:19:27.981Z,101412.03
2023-03-30T04:24:30.061Z,101423.81
2023-03-30T04:29:33.034Z,101450.22
2023-03-30T04:34:35.157Z,101417.34
2023-03-30T04:39:37.628Z,101445.34
2023-03-30T04:44:40.004Z,101445.75
2023-03-30T04:49:42.180Z,101454.19
2023-03-30T04:54:44.511Z,101464.00
2023-03-30T04:59:47.042Z,101463.16
2023-03-30T05:04:49.154Z,101453.00
2023-03-30T05:09:52.157Z,101463.41
2023-03-30T05:14:54.356Z,101466.75
2023-03-30T05:19:57.095Z,101487.38
2023-03-30T05:24:59.148Z,101471.44
2023-03-30T05:30:02.026Z,101463.44
2023-03-30T05:35:04.603Z,101477.56
2023-03-30T05:40:09.815Z,101478.94
2023-03-30T05:45:12.005Z,101444.03
2023-03-30T05:50:14.266Z,101444.91
2023-03-30T05:55:16.798Z,101444.41
2023-03-30T06:00:21.470Z,101445.56
2023-03-30T06:05:24.673Z,101453.78
2023-03-30T06:10:27.406Z,101457.31
2023-03-30T06:15:29.911Z,101450.69
2023-03-30T06:20:32.480Z,101446.16
2023-03-30T06:25:34.641Z,101439.28
2023-03-30T06:30:36.872Z,101427.22
2023-03-30T06:35:39.001Z,101436.91
2023-03-30T06:40:41.642Z,101467.56
2023-03-30T06:45:49.679Z,101457.34
2023-03-30T06:50:52.767Z,101476.31
2023-03-30T06:55:57.452Z,101462.69
2023-03-30T07:01:00.043Z,101482.22
2023-03-30T07:06:02.291Z,101474.19
2023-03-30T07:11:07.373Z,101490.66
2023-03-30T07:16:09.851Z,101486.31
2023-03-30T07:21:11.910Z,101476.03
2023-03-30T07:26:14.016Z,101480.22
2023-03-30T07:31:17.510Z,101460.44
2023-03-30T07:36:20.194Z,101468.84
2023-03-30T07:41:23.183Z,101462.28
2023-03-30T07:46:25.351Z,101472.66
2023-03-30T07:51:28.178Z,101479.38
2023-03-30T07:56:30.600Z,101477.69
2023-03-30T08:01:34.420Z,101475.66
2023-03-30T08:06:36.511Z,101456.97
2023-03-30T08:11:38.847Z,101475.13
2023-03-30T08:16:41.295Z,101464.59
2023-03-30T08:21:43.415Z,101464.84
2023-03-30T08:26:46.061Z,101452.97
2023-03-30T08:31:48.708Z,101466.38
2023-03-30T08:36:51.294Z,101437.69
2023-03-30T08:42:08.183Z,101467.22
2023-03-30T08:47:14.652Z,101451.59
2023-03-30T08:52:24.309Z,101431.41
2023-03-30T08:57:37.412Z,101451.31
2023-03-30T09:02:47.156Z,101436.97
2023-03-30T09:08:16.765Z,101440.50
2023-03-30T09:13:23.090Z,101407.63
2023-03-30T09:18:30.741Z,101437.25
2023-03-30T09:23:34.270Z,101424.84
2023-03-30T09:28:51.776Z,101412.94
2023-03-30T09:34:07.061Z,101409.81
2023-03-30T09:39:17.327Z,101398.66
2023-03-30T09:44:36.421Z,101390.06
2023-03-30T09:49:39.548Z,101353.69
2023-03-30T09:54:42.255Z,101381.53
2023-03-30T09:59:46.078Z,101367.16
2023-03-30T10:04:54.078Z,101367.94
2023-03-30T10:09:59.033Z,101353.34
2023-03-30T10:15:03.805Z,101353.13
2023-03-30T10:20:31.202Z,101344.44
2023-03-30T10:25:34.417Z,101334.63
2023-03-30T10:30:37.008Z,101319.59
2023-03-30T10:35:40.216Z,101310.41
2023-03-30T10:40:45.657Z,101304.19
2023-03-30T10:45:50.736Z,101315.22
2023-03-30T10:51:16.248Z,101308.28
2023-03-30T10:56:38.317Z,101303.25
2023-03-30T11:01:55.369Z,101293.84
2023-03-30T11:07:00.795Z,101280.94
2023-03-30T11:12:08.352Z,101282.38
2023-03-30T11:17:24.962Z,101266.03
2023-03-30T11:22:29.371Z,101258.72
2023-03-30T11:27:40.078Z,101252.31
2023-03-30T11:33:23.695Z,101236.66
2023-03-30T11:38:50.816Z,101240.16
2023-03-30T11:43:56.225Z,101214.75
2023-03-30T11:49:38.166Z,101203.06
2023-03-30T11:55:04.064Z,101202.25
2023-03-30T12:00:57.149Z,101188.56
2023-03-30T12:06:28.856Z,101180.84
2023-03-30T12:12:06.554Z,101167.00
2023-03-30T12:17:27.135Z,101149.19
2023-03-30T12:23:01.389Z,101141.34
2023-03-30T12:28:08.086Z,101126.75
2023-03-30T12:33:52.004Z,101127.22
2023-03-30T12:39:02.848Z,101108.28
2023-03-30T12:44:26.652Z,101113.97
2023-03-30T12:49:43.803Z,101098.53
2023-03-30T12:55:18.436Z,101095.06
2023-03-30T13:00:48.970Z,101093.31
2023-03-30T13:05:55.124Z,101074.09
2023-03-30T13:11:26.659Z,101070.59
2023-03-30T13:16:50.725Z,101067.38
2023-03-30T13:22:03.841Z,101055.63
2023-03-30T13:27:14.818Z,101056.66
2023-03-30T13:32:27.996Z,101047.41
2023-03-30T13:38:04.708Z,101043.06
2023-03-30T13:43:13.478Z,101020.69
2023-03-30T13:48:44.360Z,101011.50
2023-03-30T13:53:54.098Z,100992.19
2023-03-30T13:59:27.446Z,100981.16
2023-03-30T14:04:31.686Z,100977.88
2023-03-30T14:09:34.214Z,100968.03
2023-03-30T14:14:39.431Z,100971.56
2023-03-30T14:20:17.095Z,100970.97
2023-03-30T14:25:40.363Z,100953.63
2023-03-30T14:30:54.673Z,100959.09
2023-03-30T14:35:59.220Z,100949.13
2023-03-30T14:41:01.746Z,100930.38
2023-03-30T14:46:07.064Z,100949.72
2023-03-30T14:51:34.566Z,100945.91
2023-03-30T14:56:37.219Z,100928.56
2023-03-30T15:01:39.844Z,100928.72
2023-03-30T15:06:42.538Z,100917.06
2023-03-30T15:11:48.577Z,100912.16
2023-03-30T15:16:54.052Z,100904.47
2023-03-30T15:22:13.163Z,100903.66
2023-03-30T15:27:17.464Z,100909.25
2023-03-30T15:32:27.789Z,100901.75
2023-03-30T15:37:31.178Z,100915.19
2023-03-30T15:42:33.992Z,100886.41
2023-03-30T15:47:36.795Z,100909.00
2023-03-30T15:52:43.984Z,100929.50
2023-03-30T15:57:49.181Z,100922.19
2023-03-30T16:02:59.053Z,100913.91
2023-03-30T16:08:01.423Z,100909.56
2023-03-30T16:13:03.833Z,100918.34
2023-03-30T16:18:06.299Z,100940.84
2023-03-30T16:23:09.583Z,100938.31
2023-03-30T16:28:16.993Z,100935.59
2023-03-30T16:33:19.152Z,100914.38
2023-03-30T16:38:21.399Z,100914.56
2023-03-30T16:43:24.330Z,100930.34
2023-03-30T16:48:27.317Z,100927.50
2023-03-30T16:53:29.607Z,100928.97
2023-03-30T16:58:31.788Z,100936.53
2023-03-30T17:03:34.163Z,100921.50
2023-03-30T17:08:36.475Z,100939.44
2023-03-30T17:13:38.641Z,100910.47
2023-03-30T17:18:41.122Z,100929.91
2023-03-30T17:23:45.176Z,100943.72
2023-03-30T17:28:47.336Z,100927.94
2023-03-30T17:33:49.788Z,100935.41
2023-03-30T17:38:53.698Z,100955.94
2023-03-30T17:43:56.045Z,100947.38
2023-03-30T17:48:59.344Z,100933.19
2023-03-30T17:54:01.669Z,100941.63
2023-03-30T17:59:03.904Z,100938.56
2023-03-30T18:04:06.450Z,100955.97
2023-03-30T18:09:26.465Z,100944.81
2023-03-30T18:14:28.615Z,100962.75
2023-03-30T18:19:30.708Z,100938.66
2023-03-30T18:24:32.878Z,100941.16
2023-03-30T18:29:35.782Z,100946.38
2023-03-30T18:34:37.873Z,100939.09
2023-03-30T18:39:40.646Z,100953.06
2023-03-30T18:44:42.749Z,100957.63
2023-03-30T18:49:45.552Z,100965.13
2023-03-30T18:54:47.675Z,100965.38
2023-03-30T18:59:49.809Z,100954.56
2023-03-30T19:04:51.962Z,100981.59
2023-03-30T19:09:54.148Z,100989.31
2023-03-30T19:14:56.305Z,100960.53
2023-03-30T19:19:58.457Z,100977.19
2023-03-30T19:25:00.861Z,100963.03
2023-03-30T19:30:03.259Z,100950.78
2023-03-30T19:35:07.450Z,100962.38
2023-03-30T19:40:12.478Z,100975.50
2023-03-30T19:45:16.664Z,100988.16
2023-03-30T19:50:20.980Z,100981.84
2023-03-30T19:55:23.089Z,100973.06
2023-03-30T20:00:25.874Z,100966.84
2023-03-30T20:05:28.159Z,100968.53
2023-03-30T20:10:30.937Z,100965.75
2023-03-30T20:15:33.319Z,100958.59
2023-03-30T20:20:35.764Z,100942.50
2023-03-30T20:25:37.889Z,100952.53
2023-03-30T20:30:40.067Z,100938.47
2023-03-30T20:35:43.387Z,100958.91
2023-03-30T20:40:56.519Z,100954.56
2023-03-30T20:46:09.808Z,100959.59
2023-03-30T20:51:14.699Z,100948.56
2023-03-30T20:56:17.566Z,100940.63
2023-03-30T21:01:28.540Z,100952.06
2023-03-30T21:06:31.927Z,100960.91
2023-03-30T21:11:39.072Z,100957.31
2023-03-30T21:16:45.085Z,100938.44
2023-03-30T21:21:47.353Z,100955.22
2023-03-30T21:26:49.656Z,100947.66
2023-03-30T21:31:51.812Z,100943.91
2023-03-30T21:36:54.092Z,100948.00
2023-03-30T21:41:56.316Z,100933.91
2023-03-30T21:46:58.565Z,100939.16
2023-03-30T21:52:00.705Z,100925.81
2023-03-30T21:57:04.022Z,100948.50
2023-03-30T22:02:06.411Z,100921.25
2023-03-30T22:07:08.561Z,100925.06
2023-03-30T22:12:10.652Z,100931.34
2023-03-30T22:17:12.779Z,100925.41
2023-03-30T22:22:14.990Z,100915.16
2023-03-30T22:27:17.070Z,100923.16
2023-03-30T22:32:20.700Z,100927.94
2023-03-30T22:37:22.877Z,100899.69
2023-03-30T22:42:25.081Z,100902.19
2023-03-30T22:47:27.496Z,100919.34
2023-03-30T22:52:30.591Z,100924.91
2023-03-30T22:57:33.221Z,100916.16
2023-03-30T23:02:35.389Z,100915.53
2023-03-30T23:07:37.836Z,100897.53
2023-03-30T23:12:39.989Z,100904.19
2023-03-30T23:17:43.408Z,100896.06
2023-03-30T23:22:45.722Z,100893.59
2023-03-30T23:27:48.022Z,100902.34
2023-03-30T23:32:50.172Z,100879.94
2023-03-30T23:37:53.109Z,100878.75
2023-03-30T23:42:55.245Z,100887.84
2023-03-30T23:47:58.180Z,100865.88
2023-03-30T23:53:00.442Z,100877.44
2023-03-30T23:58:02.510Z,100874.56
